Time;durP1;ratioP1;P1;durP2;ratioP2;P2;SDS_P1;SDS_P2;PMS_P1;PMS_P2;Temp;Humidity;BMP_temperature;BMP_pressure;BME280_temperature;BME280_humidity;BME280_pressure;Samples;Min_cycle;Max_cycle;Signal;HPM_P1;HPM_P2
2022/03/01 00:01:42;;;;;;;9.13;5.10;;;1.70;99.90;;;;;;5078870;28;20516;-48
2022/03/01 00:04:09;;;;;;;10.80;6.27;;;1.70;99.90;;;;;;5078748;28;20443;-50
2022/03/01 00:06:36;;;;;;;10.27;5.57;;;1.70;99.90;;;;;;5077906;28;20489;-54
2022/03/01 00:09:05;;;;;;;7.30;5.63;;;1.70;99.90;;;;;;5077829;28;20442;-49
2022/03/01 00:11:32;;;;;;;7.63;4.53;;;1.80;99.90;;;;;;5077194;28;20439;-52
2022/03/01 00:14:02;;;;;;;8.77;5.60;;;1.70;99.90;;;;;;5077606;28;20446;-51
2022/03/01 00:16:34;;;;;;;10.33;4.70;;;1.70;99.90;;;;;;5078519;28;20539;-49
2022/03/01 00:19:01;;;;;;;8.30;5.27;;;1.70;99.90;;;;;;5078536;28;20487;-50
2022/03/01 00:21:28;;;;;;;8.80;4.77;;;1.70;99.90;;;;;;5078257;28;20427;-52
2022/03/01 00:23:55;;;;;;;8.67;5.73;;;1.60;99.90;;;;;;5077828;28;20443;-47
2022/03/01 00:26:22;;;;;;;19.60;6.00;;;1.60;99.90;;;;;;5077595;28;20493;-51
2022/03/01 00:28:49;;;;;;;6.70;4.37;;;1.50;99.90;;;;;;5076955;28;20494;-47
2022/03/01 00:31:20;;;;;;;10.47;5.70;;;1.50;99.90;;;;;;5077029;28;20443;-55
2022/03/01 00:33:49;;;;;;;7.47;4.23;;;1.60;99.90;;;;;;5077059;28;20444;-51
2022/03/01 00:36:15;;;;;;;13.07;4.80;;;1.60;99.90;;;;;;5077527;28;20439;-50
2022/03/01 00:38:42;;;;;;;9.27;5.63;;;1.60;99.90;;;;;;5076438;28;20431;-52
2022/03/01 00:41:09;;;;;;;11.30;4.90;;;1.60;99.90;;;;;;5076931;28;20472;-47
2022/03/01 00:43:38;;;;;;;6.07;4.30;;;1.50;99.90;;;;;;5078290;28;20431;-52
2022/03/01 00:46:05;;;;;;;9.73;4.10;;;1.50;99.90;;;;;;5078266;28;20505;-53
2022/03/01 00:48:33;;;;;;;7.83;4.83;;;1.50;99.90;;;;;;5078410;28;20463;-54
2022/03/01 00:51:00;;;;;;;8.80;4.80;;;1.50;99.90;;;;;;5078278;28;20474;-51
2022/03/01 00:53:26;;;;;;;8.73;4.53;;;1.50;99.90;;;;;;5078256;28;20439;-53
2022/03/01 00:55:53;;;;;;;14.50;6.47;;;1.50;99.90;;;;;;5078050;28;20515;-55
2022/03/01 00:58:20;;;;;;;11.83;5.63;;;1.50;99.90;;;;;;5077875;28;20427;-57
2022/03/01 01:00:47;;;;;;;8.93;5.07;;;1.50;99.90;;;;;;5077945;28;20431;-56
2022/03/01 01:03:13;;;;;;;10.00;4.50;;;1.40;99.90;;;;;;5077819;28;20481;-58
2022/03/01 01:05:41;;;;;;;7.53;5.50;;;1.40;99.90;;;;;;5077021;28;20533;-55
2022/03/01 01:08:08;;;;;;;7.63;5.00;;;1.40;99.90;;;;;;5077554;28;20443;-55
2022/03/01 01:10:35;;;;;;;19.00;6.60;;;1.40;99.90;;;;;;5077243;28;20444;-52
2022/03/01 01:13:02;;;;;;;7.60;4.90;;;1.40;99.90;;;;;;5076441;28;20442;-55
2022/03/01 01:15:29;;;;;;;13.37;5.27;;;1.50;99.90;;;;;;5076504;28;20439;-56
2022/03/01 01:17:55;;;;;;;6.33;3.90;;;1.40;99.90;;;;;;5076189;28;20486;-62
2022/03/01 01:20:22;;;;;;;10.73;5.13;;;1.40;99.90;;;;;;5075841;28;20459;-59
2022/03/01 01:22:52;;;;;;;7.40;4.30;;;1.30;99.90;;;;;;5075336;28;20440;-56
2022/03/01 01:25:21;;;;;;;7.30;4.90;;;1.40;99.90;;;;;;5075230;28;20497;-58
2022/03/01 01:27:51;;;;;;;5.33;4.80;;;1.30;99.90;;;;;;5075460;28;20439;-56
2022/03/01 01:30:20;;;;;;;7.63;4.53;;;1.30;99.90;;;;;;5075614;28;20435;-58
2022/03/01 01:32:50;;;;;;;7.07;4.77;;;1.30;99.90;;;;;;5075523;28;20470;-51
2022/03/01 01:35:18;;;;;;;10.60;5.83;;;1.30;99.90;;;;;;5075773;28;20477;-56
2022/03/01 01:37:45;;;;;;;9.80;5.57;;;1.20;99.90;;;;;;5075115;28;20467;-60
2022/03/01 01:40:15;;;;;;;12.13;5.93;;;1.20;99.90;;;;;;5075447;28;20481;-51
2022/03/01 01:42:42;;;;;;;9.47;5.00;;;1.30;99.90;;;;;;5075250;28;20454;-58
2022/03/01 01:45:10;;;;;;;7.50;4.80;;;1.30;99.90;;;;;;5075270;28;20445;-58
2022/03/01 01:47:37;;;;;;;7.83;4.33;;;1.40;99.90;;;;;;5074844;28;20467;-57
2022/03/01 01:50:06;;;;;;;7.80;4.80;;;1.30;99.90;;;;;;5075002;28;20459;-59
2022/03/01 01:52:32;;;;;;;7.00;5.10;;;1.30;99.90;;;;;;5075305;28;20439;-59
2022/03/01 01:54:59;;;;;;;8.87;4.73;;;1.30;99.90;;;;;;5075079;28;20493;-56
2022/03/01 01:57:27;;;;;;;13.03;6.20;;;1.30;99.90;;;;;;5075523;28;20432;-58
2022/03/01 01:59:56;;;;;;;10.33;6.10;;;1.20;99.90;;;;;;5075159;28;20451;-57
2022/03/01 02:02:25;;;;;;;9.27;5.67;;;1.20;99.90;;;;;;5074991;28;20423;-59
2022/03/01 02:04:51;;;;;;;7.03;4.73;;;1.20;99.90;;;;;;5075215;28;20498;-59
2022/03/01 02:07:18;;;;;;;15.40;6.70;;;1.20;99.90;;;;;;5075418;28;20487;-54
2022/03/01 02:09:45;;;;;;;12.87;5.87;;;1.20;99.90;;;;;;5075075;28;20473;-58
2022/03/01 02:12:12;;;;;;;11.77;6.87;;;1.20;99.90;;;;;;5074437;28;20486;-60
2022/03/01 02:14:41;;;;;;;9.40;5.60;;;1.20;99.90;;;;;;5074898;28;20467;-59
2022/03/01 02:17:10;;;;;;;10.17;6.23;;;1.20;99.90;;;;;;5075438;28;20440;-59
2022/03/01 02:19:38;;;;;;;7.60;5.20;;;1.20;99.90;;;;;;5074564;28;20506;-58
2022/03/01 02:22:09;;;;;;;8.43;5.93;;;1.10;99.90;;;;;;5075754;28;20474;-56
2022/03/01 02:24:35;;;;;;;10.67;4.57;;;1.10;99.90;;;;;;5075449;28;20432;-54
2022/03/01 02:27:04;;;;;;;15.60;7.27;;;1.10;99.90;;;;;;5075445;28;20488;-57
2022/03/01 02:29:32;;;;;;;14.93;5.37;;;1.00;99.90;;;;;;5075312;28;20451;-57
2022/03/01 02:32:06;;;;;;;12.63;5.90;;;1.00;99.90;;;;;;5074843;28;20499;-56
2022/03/01 02:34:33;;;;;;;9.23;5.00;;;1.00;99.90;;;;;;5074785;28;20424;-59
2022/03/01 02:37:00;;;;;;;12.50;5.13;;;1.00;99.90;;;;;;5075253;28;20459;-57
2022/03/01 02:39:28;;;;;;;15.30;7.17;;;1.00;99.90;;;;;;5075067;28;20899;-56
2022/03/01 02:41:55;;;;;;;9.67;6.57;;;0.90;99.90;;;;;;5074816;28;20473;-57
2022/03/01 02:44:22;;;;;;;9.43;5.30;;;0.90;99.90;;;;;;5075042;28;20486;-58
2022/03/01 02:46:49;;;;;;;11.50;5.13;;;0.80;99.90;;;;;;5074527;28;20462;-53
2022/03/01 02:49:15;;;;;;;11.57;6.63;;;0.80;99.90;;;;;;5074578;28;20458;-59
2022/03/01 02:51:42;;;;;;;9.87;6.37;;;0.70;99.90;;;;;;5075237;28;20433;-57
2022/03/01 02:54:10;;;;;;;7.50;4.43;;;0.70;99.90;;;;;;5074412;28;20452;-55
2022/03/01 02:56:40;;;;;;;10.80;5.40;;;0.80;99.90;;;;;;5074447;28;20463;-54
2022/03/01 02:59:07;;;;;;;12.43;6.00;;;0.70;99.90;;;;;;5074645;28;20451;-55
2022/03/01 03:01:34;;;;;;;9.10;6.10;;;0.60;99.90;;;;;;5074583;28;20478;-56
2022/03/01 03:04:01;;;;;;;8.10;5.50;;;0.70;99.90;;;;;;5078326;28;20434;-57
2022/03/01 03:06:27;;;;;;;11.17;5.50;;;0.60;99.90;;;;;;5079010;28;20509;-58
2022/03/01 03:08:54;;;;;;;9.33;5.73;;;0.60;99.90;;;;;;5078470;28;20479;-58
2022/03/01 03:11:21;;;;;;;10.53;6.07;;;0.60;99.90;;;;;;5078677;28;20439;-58
2022/03/01 03:13:49;;;;;;;11.07;5.70;;;0.60;99.90;;;;;;5078454;28;20762;-59
2022/03/01 03:16:16;;;;;;;8.67;5.50;;;0.60;99.90;;;;;;5078860;28;20444;-58
2022/03/01 03:18:43;;;;;;;9.73;5.77;;;0.60;99.90;;;;;;5078347;28;20427;-55
2022/03/01 03:21:11;;;;;;;8.37;5.93;;;0.60;99.90;;;;;;5078382;28;20459;-54
2022/03/01 03:23:39;;;;;;;10.23;6.00;;;0.60;99.90;;;;;;5078777;28;20431;-59
2022/03/01 03:26:05;;;;;;;14.03;6.00;;;0.60;99.90;;;;;;5077861;28;20525;-58
2022/03/01 03:28:32;;;;;;;8.83;5.10;;;0.60;99.90;;;;;;5078356;28;20473;-57
2022/03/01 03:31:01;;;;;;;15.07;5.87;;;0.60;99.90;;;;;;5078532;28;20444;-58
2022/03/01 03:33:27;;;;;;;13.67;6.13;;;0.60;99.90;;;;;;5078621;28;20491;-55
2022/03/01 03:35:56;;;;;;;8.10;5.33;;;0.60;99.90;;;;;;5078200;28;20431;-59
2022/03/01 03:38:23;;;;;;;6.87;4.80;;;0.60;99.90;;;;;;5078292;28;20497;-56
2022/03/01 03:40:50;;;;;;;8.63;5.43;;;0.50;99.90;;;;;;5078326;28;20633;-57
2022/03/01 03:43:17;;;;;;;16.70;5.93;;;0.50;99.90;;;;;;5078204;28;20455;-57
2022/03/01 03:45:44;;;;;;;6.97;5.63;;;0.50;99.90;;;;;;5078350;28;20462;-59
2022/03/01 03:48:12;;;;;;;15.20;6.37;;;0.50;99.90;;;;;;5078232;28;20447;-58
2022/03/01 03:50:39;;;;;;;6.83;5.83;;;0.40;99.90;;;;;;5078169;28;20463;-57
2022/03/01 03:53:06;;;;;;;9.67;5.23;;;0.40;99.90;;;;;;5078017;28;21013;-58
2022/03/01 03:55:34;;;;;;;16.60;6.13;;;0.40;99.90;;;;;;5078825;28;20473;-58
2022/03/01 03:58:01;;;;;;;8.13;5.53;;;0.40;99.90;;;;;;5077725;28;20435;-57
2022/03/01 04:00:31;;;;;;;7.50;5.70;;;0.40;99.90;;;;;;5077987;28;20465;-55
2022/03/01 04:02:58;;;;;;;9.07;6.80;;;0.40;99.90;;;;;;5078368;28;20470;-59
2022/03/01 04:05:26;;;;;;;15.23;7.00;;;0.40;99.90;;;;;;5078204;28;20443;-59
2022/03/01 04:07:52;;;;;;;8.57;5.13;;;0.40;99.90;;;;;;5078037;28;20479;-56
2022/03/01 04:10:19;;;;;;;11.10;4.53;;;0.40;99.90;;;;;;5077282;28;20427;-59
2022/03/01 04:12:46;;;;;;;12.57;6.00;;;0.40;99.90;;;;;;5077766;28;20444;-56
2022/03/01 04:15:13;;;;;;;6.73;4.70;;;0.40;99.90;;;;;;5077751;28;20471;-55
2022/03/01 04:17:41;;;;;;;11.00;5.30;;;0.40;99.90;;;;;;5077865;28;20464;-55
2022/03/01 04:20:10;;;;;;;15.30;7.07;;;0.30;99.90;;;;;;5077573;28;20447;-56
2022/03/01 04:22:38;;;;;;;11.50;6.33;;;0.30;99.90;;;;;;5077667;28;20451;-57
2022/03/01 04:25:07;;;;;;;12.43;5.73;;;0.30;99.90;;;;;;5078184;28;20432;-58
2022/03/01 04:27:33;;;;;;;9.77;4.63;;;0.30;99.90;;;;;;5077630;28;20533;-56
2022/03/01 04:30:00;;;;;;;11.47;5.70;;;0.30;99.90;;;;;;5078118;28;20458;-58
2022/03/01 04:32:27;;;;;;;10.70;4.80;;;0.30;99.90;;;;;;5077341;28;20447;-58
2022/03/01 04:34:54;;;;;;;10.17;4.90;;;0.30;99.90;;;;;;5077294;28;20466;-57
2022/03/01 04:37:20;;;;;;;15.37;5.30;;;0.30;99.90;;;;;;5077516;28;20435;-60
2022/03/01 04:39:48;;;;;;;8.70;6.17;;;0.30;99.90;;;;;;5077820;28;20482;-56
2022/03/01 04:42:17;;;;;;;9.17;4.93;;;0.30;99.90;;;;;;5077901;28;20542;-57
2022/03/01 04:44:44;;;;;;;9.17;5.77;;;0.30;99.90;;;;;;5077308;28;20467;-58
2022/03/01 04:47:15;;;;;;;7.03;5.60;;;0.30;99.90;;;;;;5077522;28;20488;-58
2022/03/01 04:49:42;;;;;;;9.70;6.00;;;0.40;99.90;;;;;;5077204;28;20428;-55
2022/03/01 04:52:09;;;;;;;7.30;4.80;;;0.30;99.90;;;;;;5077467;28;20475;-57
2022/03/01 04:54:35;;;;;;;11.97;5.07;;;0.20;99.90;;;;;;5077834;28;20470;-57
2022/03/01 04:57:04;;;;;;;7.87;5.60;;;0.30;99.90;;;;;;5077885;28;20460;-58
2022/03/01 04:59:30;;;;;;;12.53;7.40;;;0.30;99.90;;;;;;5077510;28;20459;-60
2022/03/01 05:01:57;;;;;;;6.47;4.50;;;0.30;99.90;;;;;;5078216;28;20459;-57
2022/03/01 05:04:24;;;;;;;10.63;6.40;;;0.30;99.90;;;;;;5077721;28;20454;-57
2022/03/01 05:06:51;;;;;;;7.10;5.77;;;0.30;99.90;;;;;;5077947;28;20542;-57
2022/03/01 05:09:18;;;;;;;9.97;5.50;;;0.30;99.90;;;;;;5077578;28;20973;-55
2022/03/01 05:11:45;;;;;;;9.60;5.37;;;0.30;99.90;;;;;;5077266;28;20445;-54
2022/03/01 05:14:12;;;;;;;12.00;6.70;;;0.40;99.90;;;;;;5077712;28;20455;-52
2022/03/01 05:16:39;;;;;;;11.67;6.93;;;0.30;99.90;;;;;;5077785;28;20481;-59
2022/03/01 05:19:07;;;;;;;10.80;6.03;;;0.30;99.90;;;;;;5076986;28;20439;-56
2022/03/01 05:21:34;;;;;;;9.30;6.00;;;0.30;99.90;;;;;;5076907;28;20502;-58
2022/03/01 05:24:01;;;;;;;12.97;5.40;;;0.30;99.90;;;;;;5077734;28;20475;-59
2022/03/01 05:26:27;;;;;;;7.83;4.13;;;0.30;99.90;;;;;;5076931;28;20504;-59
2022/03/01 05:28:57;;;;;;;9.87;4.60;;;0.40;99.90;;;;;;5077185;28;20436;-60
2022/03/01 05:31:28;;;;;;;6.37;4.80;;;0.40;99.90;;;;;;5076641;28;20435;-60
2022/03/01 05:33:54;;;;;;;13.73;5.70;;;0.40;99.90;;;;;;5077117;28;20467;-57
2022/03/01 05:36:23;;;;;;;17.03;6.53;;;0.40;99.90;;;;;;5076600;28;20473;-58
2022/03/01 05:38:49;;;;;;;8.80;4.57;;;0.40;99.90;;;;;;5076987;28;20459;-59
2022/03/01 05:41:16;;;;;;;13.30;6.57;;;0.40;99.90;;;;;;5076142;28;20455;-55
2022/03/01 05:43:45;;;;;;;16.07;6.10;;;0.40;99.90;;;;;;5076407;28;20454;-55
2022/03/01 05:46:11;;;;;;;8.93;5.47;;;0.40;99.90;;;;;;5076352;28;20517;-58
2022/03/01 05:48:42;;;;;;;9.83;5.10;;;0.40;99.90;;;;;;5075973;28;20470;-57
2022/03/01 05:51:09;;;;;;;7.47;5.40;;;0.40;99.90;;;;;;5075875;28;20462;-58
2022/03/01 05:53:36;;;;;;;10.40;5.43;;;0.40;99.90;;;;;;5076082;28;20439;-58
2022/03/01 05:56:02;;;;;;;13.67;6.33;;;0.30;99.90;;;;;;5075891;28;20466;-57
2022/03/01 05:58:29;;;;;;;6.80;4.90;;;0.30;99.90;;;;;;5075193;28;20506;-57
2022/03/01 06:00:56;;;;;;;7.33;5.30;;;0.40;99.90;;;;;;5075468;28;20455;-59
2022/03/01 06:03:22;;;;;;;13.20;5.70;;;0.40;99.90;;;;;;5075633;28;20435;-59
2022/03/01 06:05:50;;;;;;;11.73;6.47;;;0.40;99.90;;;;;;5075458;28;20477;-62
2022/03/01 06:08:17;;;;;;;9.70;4.80;;;0.40;99.90;;;;;;5075632;28;20487;-59
2022/03/01 06:10:44;;;;;;;10.80;6.90;;;0.40;99.90;;;;;;5075260;28;20432;-55
2022/03/01 06:13:10;;;;;;;12.00;6.60;;;0.40;99.90;;;;;;5076153;28;20448;-58
2022/03/01 06:15:37;;;;;;;12.73;6.80;;;0.40;99.90;;;;;;5076292;28;20473;-58
2022/03/01 06:18:04;;;;;;;12.40;5.77;;;0.40;99.90;;;;;;5075628;28;20440;-55
2022/03/01 06:20:31;;;;;;;10.00;6.20;;;0.40;99.90;;;;;;5075677;28;20451;-57
2022/03/01 06:22:59;;;;;;;12.23;6.57;;;0.40;99.90;;;;;;5076205;28;20443;-42
2022/03/01 06:25:27;;;;;;;8.43;5.20;;;0.40;99.90;;;;;;5075862;28;20439;-48
2022/03/01 06:27:54;;;;;;;11.93;5.97;;;0.50;99.90;;;;;;5074763;28;20479;-53
2022/03/01 06:30:20;;;;;;;15.60;8.37;;;0.60;99.90;;;;;;5075301;28;20465;-55
2022/03/01 06:32:47;;;;;;;13.93;8.90;;;0.60;99.90;;;;;;5075146;28;20485;-52
2022/03/01 06:35:14;;;;;;;11.50;6.50;;;0.70;99.90;;;;;;5074962;28;20451;-49
2022/03/01 06:37:41;;;;;;;12.37;8.53;;;0.80;99.90;;;;;;5074577;28;20429;-55
2022/03/01 06:40:12;;;;;;;10.60;5.87;;;0.80;99.90;;;;;;5075091;28;20463;-65
2022/03/01 06:42:39;;;;;;;15.80;7.20;;;0.80;99.90;;;;;;5075053;28;20455;-50
2022/03/01 06:45:07;;;;;;;9.97;6.30;;;0.80;99.90;;;;;;5074910;28;20467;-46
2022/03/01 06:47:33;;;;;;;15.50;7.97;;;0.80;99.90;;;;;;5074540;28;20471;-55
2022/03/01 06:50:00;;;;;;;10.80;6.90;;;0.80;99.90;;;;;;5074797;28;20444;-53
2022/03/01 06:52:31;;;;;;;8.80;6.10;;;0.80;99.90;;;;;;5075009;28;20478;-55
2022/03/01 06:54:57;;;;;;;10.90;6.20;;;0.90;99.90;;;;;;5075041;28;20428;-54
2022/03/01 06:57:26;;;;;;;13.93;8.60;;;0.90;99.90;;;;;;5074957;28;20805;-53
2022/03/01 06:59:53;;;;;;;11.87;5.67;;;1.00;99.90;;;;;;5074901;28;20554;-54
2022/03/01 07:02:20;;;;;;;13.03;6.63;;;1.00;99.90;;;;;;5074534;28;20539;-52
2022/03/01 07:04:47;;;;;;;10.53;6.97;;;1.10;99.90;;;;;;5073726;28;20494;-52
2022/03/01 07:07:14;;;;;;;17.97;8.97;;;1.10;99.90;;;;;;5073932;28;20506;-52
2022/03/01 07:09:42;;;;;;;18.20;8.63;;;1.20;99.90;;;;;;5074066;28;20439;-49
2022/03/01 07:12:09;;;;;;;10.83;5.90;;;1.20;99.90;;;;;;5074331;28;20470;-50
2022/03/01 07:14:38;;;;;;;13.43;7.80;;;1.30;99.90;;;;;;5074230;28;20482;-48
2022/03/01 07:17:05;;;;;;;10.10;5.60;;;1.30;99.90;;;;;;5074321;28;20452;-50
2022/03/01 07:19:32;;;;;;;10.30;6.33;;;1.30;99.90;;;;;;5074639;28;20458;-52
2022/03/01 07:21:58;;;;;;;12.80;5.90;;;1.30;99.90;;;;;;5074547;28;20431;-49
2022/03/01 07:24:27;;;;;;;11.93;6.50;;;1.30;99.90;;;;;;5074528;28;20455;-52
2022/03/01 07:26:54;;;;;;;9.30;6.07;;;1.30;99.90;;;;;;5074452;28;20475;-51
2022/03/01 07:29:21;;;;;;;10.17;5.80;;;1.50;99.90;;;;;;5074463;28;20450;-50
2022/03/01 07:31:49;;;;;;;12.50;6.80;;;1.60;99.90;;;;;;5073993;28;20468;-51
2022/03/01 07:34:15;;;;;;;12.30;6.30;;;1.60;99.90;;;;;;5074241;28;20456;-57
2022/03/01 07:36:42;;;;;;;7.80;5.63;;;1.70;99.90;;;;;;5074626;28;20444;-56
2022/03/01 07:39:09;;;;;;;14.83;6.03;;;1.70;99.90;;;;;;5074401;28;20474;-55
2022/03/01 07:41:36;;;;;;;13.77;5.70;;;1.60;99.90;;;;;;5073952;28;20435;-53
2022/03/01 07:44:02;;;;;;;11.07;5.43;;;1.70;99.90;;;;;;5074418;28;20447;-53
2022/03/01 07:46:29;;;;;;;16.07;8.17;;;1.60;99.90;;;;;;5074581;28;20419;-58
2022/03/01 07:48:57;;;;;;;14.50;6.20;;;1.60;99.90;;;;;;5075724;28;20466;-58
2022/03/01 07:51:24;;;;;;;8.80;5.43;;;1.60;99.90;;;;;;5077859;28;20451;-62
2022/03/01 07:53:51;;;;;;;11.30;6.13;;;1.60;99.90;;;;;;5077649;28;20450;-62
2022/03/01 07:56:20;;;;;;;8.17;5.30;;;1.60;99.90;;;;;;5077952;28;20446;-59
2022/03/01 07:58:47;;;;;;;10.97;7.40;;;1.60;99.90;;;;;;5077725;28;20442;-57
2022/03/01 08:01:14;;;;;;;17.20;6.10;;;1.60;99.90;;;;;;5077676;28;20435;-58
2022/03/01 08:03:41;;;;;;;17.73;5.93;;;1.60;99.90;;;;;;5077675;28;20447;-55
2022/03/01 08:06:09;;;;;;;9.50;4.80;;;1.60;99.90;;;;;;5077518;28;20773;-56
2022/03/01 08:08:36;;;;;;;7.63;4.00;;;1.70;99.90;;;;;;5077657;28;20491;-60
2022/03/01 08:11:04;;;;;;;7.10;4.70;;;1.70;99.90;;;;;;5076884;28;20489;-58
2022/03/01 08:13:31;;;;;;;12.50;5.70;;;1.70;99.90;;;;;;5077759;28;20474;-58
2022/03/01 08:15:58;;;;;;;10.07;5.80;;;1.80;99.90;;;;;;5077904;28;20439;-55
2022/03/01 08:18:25;;;;;;;11.40;6.57;;;1.90;99.90;;;;;;5077298;28;20431;-57
2022/03/01 08:20:52;;;;;;;9.60;5.63;;;2.00;99.90;;;;;;5077045;28;20478;-57
2022/03/01 08:23:20;;;;;;;6.67;4.50;;;2.10;99.90;;;;;;5076978;28;20444;-55
2022/03/01 08:25:47;;;;;;;12.90;6.23;;;2.20;99.90;;;;;;5077067;28;20432;-57
2022/03/01 08:28:14;;;;;;;12.00;7.10;;;2.20;99.90;;;;;;5076686;28;20483;-65
2022/03/01 08:30:41;;;;;;;9.13;5.60;;;2.30;99.90;;;;;;5077193;28;20420;-51
2022/03/01 08:33:08;;;;;;;10.13;5.50;;;2.30;99.90;;;;;;5076321;28;20478;-56
2022/03/01 08:35:36;;;;;;;9.70;5.60;;;2.40;99.90;;;;;;5076848;28;20462;-59
2022/03/01 08:38:04;;;;;;;12.40;5.83;;;2.50;99.90;;;;;;5076716;28;20439;-57
2022/03/01 08:40:33;;;;;;;11.07;5.93;;;2.60;99.90;;;;;;5076857;28;20459;-56
2022/03/01 08:43:00;;;;;;;9.70;4.73;;;2.70;99.90;;;;;;5077056;28;20467;-62
2022/03/01 08:45:27;;;;;;;11.67;5.87;;;2.80;99.90;;;;;;5076652;28;20468;-57
2022/03/01 08:47:54;;;;;;;7.00;5.40;;;2.80;99.90;;;;;;5076878;28;20471;-57
2022/03/01 08:50:21;;;;;;;18.47;7.10;;;3.00;99.90;;;;;;5076972;28;20435;-57
2022/03/01 08:52:49;;;;;;;13.07;5.37;;;3.00;99.90;;;;;;5077148;28;20462;-58
2022/03/01 08:55:15;;;;;;;9.43;4.93;;;3.10;99.90;;;;;;5077229;28;20448;-58
2022/03/01 08:57:44;;;;;;;8.90;6.07;;;3.20;99.90;;;;;;5076421;28;20471;-58
2022/03/01 09:00:13;;;;;;;11.87;6.40;;;3.20;99.90;;;;;;5075472;28;20512;-58
2022/03/01 09:02:40;;;;;;;13.77;7.07;;;3.30;99.90;;;;;;5076973;28;20451;-53
2022/03/01 09:05:07;;;;;;;9.07;5.57;;;3.40;99.90;;;;;;5076482;28;20447;-57
2022/03/01 09:07:34;;;;;;;9.80;4.90;;;3.60;99.90;;;;;;5076429;28;20483;-60
2022/03/01 09:10:02;;;;;;;11.50;7.60;;;3.70;99.90;;;;;;5076666;28;20485;-57
2022/03/01 09:12:28;;;;;;;10.10;3.90;;;3.90;99.90;;;;;;5076449;28;20440;-59
2022/03/01 09:14:57;;;;;;;5.53;4.30;;;4.30;99.90;;;;;;5077055;28;20438;-60
2022/03/01 09:17:23;;;;;;;11.63;5.07;;;4.10;99.90;;;;;;5076530;28;20491;-60
2022/03/01 09:19:51;;;;;;;13.53;6.27;;;4.30;99.90;;;;;;5077467;28;20443;-59
2022/03/01 09:22:18;;;;;;;9.50;5.80;;;4.50;99.90;;;;;;5077765;28;20463;-53
2022/03/01 09:24:45;;;;;;;8.00;4.87;;;4.60;99.70;;;;;;5077644;28;20435;-56
2022/03/01 09:27:13;;;;;;;16.07;5.40;;;4.70;99.40;;;;;;5077059;28;20451;-53
2022/03/01 09:29:42;;;;;;;8.37;5.00;;;4.90;98.30;;;;;;5077474;28;20497;-57
2022/03/01 09:32:10;;;;;;;8.10;5.27;;;5.10;97.00;;;;;;5077140;28;20518;-59
2022/03/01 09:34:37;;;;;;;12.63;5.47;;;5.30;95.80;;;;;;5077065;28;20463;-59
2022/03/01 09:37:04;;;;;;;9.50;5.87;;;5.40;95.10;;;;;;5076149;28;20449;-56
2022/03/01 09:39:30;;;;;;;11.30;4.77;;;5.50;94.10;;;;;;5076356;28;20526;-59
2022/03/01 09:41:58;;;;;;;9.07;5.13;;;5.60;93.60;;;;;;5075875;28;20448;-56
2022/03/01 09:44:25;;;;;;;10.73;5.47;;;5.60;93.40;;;;;;5076108;28;20447;-57
2022/03/01 09:46:53;;;;;;;8.37;5.27;;;6.00;93.40;;;;;;5075271;28;20474;-57
2022/03/01 09:49:21;;;;;;;9.87;5.70;;;6.90;92.00;;;;;;5073729;28;20481;-57
2022/03/01 09:51:48;;;;;;;7.07;5.80;;;8.00;85.50;;;;;;5073122;28;20481;-58
2022/03/01 09:54:15;;;;;;;11.97;7.00;;;8.50;78.10;;;;;;5073363;28;20450;-57
2022/03/01 09:56:42;;;;;;;11.80;6.70;;;8.60;73.90;;;;;;5074132;28;20450;-59
2022/03/01 09:59:10;;;;;;;8.00;5.60;;;8.60;72.00;;;;;;5073734;28;20431;-59
2022/03/01 10:01:37;;;;;;;14.93;6.77;;;9.40;69.30;;;;;;5071381;28;20444;-59
2022/03/01 10:04:09;;;;;;;10.40;5.30;;;10.60;64.50;;;;;;5069635;28;20502;-54
2022/03/01 10:06:43;;;;;;;11.17;5.40;;;11.80;58.20;;;;;;5066375;28;20451;-57
2022/03/01 10:09:15;;;;;;;9.20;5.57;;;13.60;54.10;;;;;;5065417;28;20467;-56
2022/03/01 10:11:42;;;;;;;11.10;6.07;;;14.40;48.40;;;;;;5064158;28;20435;-57
2022/03/01 10:14:09;;;;;;;9.33;6.50;;;15.10;45.80;;;;;;5064689;28;20564;-55
2022/03/01 10:16:42;;;;;;;9.80;5.43;;;16.00;44.20;;;;;;5064810;28;20899;-58
2022/03/01 10:19:11;;;;;;;13.40;6.97;;;16.20;42.30;;;;;;5047457;28;20526;-58
2022/03/01 10:21:38;;;;;;;12.27;6.70;;;16.60;41.30;;;;;;5064822;28;20439;-58
2022/03/01 10:24:08;;;;;;;12.77;6.53;;;16.80;39.80;;;;;;5064480;28;20439;-58
2022/03/01 10:26:37;;;;;;;9.97;6.77;;;16.90;39.50;;;;;;5064416;28;20485;-57
2022/03/01 10:29:05;;;;;;;12.23;6.90;;;16.90;38.90;;;;;;5064063;28;20487;-55
2022/03/01 10:31:33;;;;;;;9.53;7.00;;;16.90;38.50;;;;;;5064555;28;20538;-55
2022/03/01 10:34:02;;;;;;;9.37;6.13;;;16.90;38.30;;;;;;5065844;28;20470;-58
2022/03/01 10:36:31;;;;;;;12.30;6.43;;;16.70;38.50;;;;;;5065370;28;20435;-57
2022/03/01 10:39:01;;;;;;;12.53;6.50;;;16.60;38.30;;;;;;5065547;28;20938;-58
2022/03/01 10:41:31;;;;;;;11.53;6.50;;;16.80;38.70;;;;;;5065014;28;20493;-57
2022/03/01 10:44:01;;;;;;;11.03;7.27;;;16.80;38.50;;;;;;5065045;28;20459;-57
2022/03/01 10:46:29;;;;;;;9.17;6.50;;;16.90;38.40;;;;;;5064734;28;20494;-57
2022/03/01 10:49:08;;;;;;;9.10;6.13;;;16.70;38.40;;;;;;5065224;28;20472;-57
2022/03/01 10:51:35;;;;;;;14.10;6.50;;;16.70;37.90;;;;;;5064860;28;20468;-57
2022/03/01 10:54:02;;;;;;;10.17;5.40;;;16.80;36.10;;;;;;5064344;28;20458;-58
2022/03/01 10:56:38;;;;;;;8.07;5.80;;;16.70;36.30;;;;;;5065293;28;20466;-57
2022/03/01 10:59:06;;;;;;;8.30;5.87;;;16.30;37.00;;;;;;5065399;28;20474;-52
2022/03/01 11:01:32;;;;;;;7.70;5.63;;;16.20;37.00;;;;;;5065129;28;20443;-58
2022/03/01 11:03:59;;;;;;;8.07;5.40;;;16.30;36.80;;;;;;5064703;28;20497;-57
2022/03/01 11:06:26;;;;;;;11.10;5.30;;;16.00;37.00;;;;;;5065453;28;20439;-54
2022/03/01 11:08:54;;;;;;;8.23;5.63;;;15.60;38.30;;;;;;5065738;28;20479;-56
2022/03/01 11:11:26;;;;;;;8.00;6.60;;;15.50;37.60;;;;;;5056825;28;20442;-52
2022/03/01 11:13:55;;;;;;;10.83;6.50;;;15.20;37.30;;;;;;5061313;28;20490;-55
2022/03/01 11:16:51;;;;;;;8.03;5.90;;;14.80;37.20;;;;;;5054528;28;20824;-58
2022/03/01 11:19:36;;;;;;;8.07;5.60;;;14.60;38.10;;;;;;5047515;28;20474;-55
2022/03/01 11:22:03;;;;;;;6.93;5.87;;;14.30;38.40;;;;;;5054182;28;20447;-57
2022/03/01 11:24:30;;;;;;;19.00;6.30;;;14.00;38.90;;;;;;5057042;28;20467;-57
2022/03/01 11:27:06;;;;;;;8.00;5.97;;;13.60;38.60;;;;;;5058477;28;20500;-56
2022/03/01 11:29:40;;;;;;;8.60;4.87;;;13.10;38.30;;;;;;5058480;28;20557;-60
2022/03/01 11:32:12;;;;;;;8.00;5.23;;;12.60;38.50;;;;;;5058695;28;20471;-60
2022/03/01 11:34:43;;;;;;;8.10;5.00;;;12.30;40.00;;;;;;5058148;28;20462;-57
2022/03/01 11:37:16;;;;;;;8.23;4.70;;;11.80;40.10;;;;;;5058197;28;20427;-56
2022/03/01 11:39:44;;;;;;;8.93;5.67;;;11.60;40.00;;;;;;5058444;28;20438;-55
2022/03/01 11:42:17;;;;;;;6.00;4.27;;;11.30;40.80;;;;;;5057928;28;20896;-60
2022/03/01 11:44:51;;;;;;;10.17;5.27;;;11.00;41.30;;;;;;5057827;28;20436;-56
2022/03/01 11:47:27;;;;;;;11.13;6.50;;;10.70;41.90;;;;;;5058207;28;20439;-57
2022/03/01 11:49:54;;;;;;;7.33;4.60;;;10.60;42.30;;;;;;5058037;28;20563;-54
2022/03/01 11:52:23;;;;;;;5.83;3.90;;;10.50;41.90;;;;;;5057929;28;20470;-58
2022/03/01 11:54:51;;;;;;;6.00;4.20;;;10.30;41.50;;;;;;5058066;28;20468;-53
2022/03/01 11:57:24;;;;;;;7.10;4.73;;;10.20;41.50;;;;;;5058105;28;20450;-54
2022/03/01 11:59:53;;;;;;;10.57;5.47;;;9.90;43.10;;;;;;5057864;28;20479;-60
2022/03/01 12:02:20;;;;;;;11.07;4.73;;;9.70;43.80;;;;;;5058015;28;20493;-57
2022/03/01 12:04:49;;;;;;;6.10;4.90;;;9.60;44.00;;;;;;5057970;28;20439;-56
2022/03/01 12:07:19;;;;;;;9.20;4.30;;;9.30;43.70;;;;;;5058584;28;21019;-56
2022/03/01 12:09:58;;;;;;;10.90;4.27;;;9.10;44.20;;;;;;5058641;28;20474;-55
2022/03/01 12:12:36;;;;;;;6.50;4.87;;;9.10;44.80;;;;;;5058619;28;20443;-56
2022/03/01 12:15:08;;;;;;;7.10;4.90;;;9.20;45.80;;;;;;5059373;28;20443;-58
2022/03/01 12:17:43;;;;;;;7.77;4.77;;;9.10;44.90;;;;;;5058804;28;20466;-54
2022/03/01 12:20:12;;;;;;;7.23;4.50;;;9.10;44.80;;;;;;5058274;28;20541;-55
2022/03/01 12:22:53;;;;;;;8.33;5.83;;;9.10;44.80;;;;;;5058080;28;20463;-57
2022/03/01 12:25:20;;;;;;;14.20;5.70;;;9.10;44.60;;;;;;5057931;28;20446;-54
2022/03/01 12:27:49;;;;;;;7.43;5.00;;;9.10;44.60;;;;;;5057159;28;20471;-58
2022/03/01 12:30:20;;;;;;;10.10;4.77;;;9.00;45.10;;;;;;5057567;28;20479;-57
2022/03/01 12:32:51;;;;;;;6.30;3.70;;;9.10;45.10;;;;;;5057436;28;20498;-57
2022/03/01 12:35:18;;;;;;;7.60;4.30;;;9.10;44.50;;;;;;5056116;28;20471;-54
2022/03/01 12:37:45;;;;;;;7.43;4.00;;;9.10;44.70;;;;;;5057424;28;20505;-57
2022/03/01 12:40:13;;;;;;;5.93;4.33;;;9.10;44.20;;;;;;5057206;28;20442;-58
2022/03/01 12:42:39;;;;;;;5.43;4.60;;;9.10;43.90;;;;;;5057159;28;20517;-56
2022/03/01 12:45:07;;;;;;;6.47;3.97;;;9.10;43.80;;;;;;5057257;28;20530;-56
2022/03/01 12:47:39;;;;;;;11.10;4.07;;;9.10;43.80;;;;;;5056827;28;20447;-57
2022/03/01 12:50:18;;;;;;;7.37;5.00;;;9.20;43.90;;;;;;5056971;28;20498;-57
2022/03/01 12:52:54;;;;;;;6.03;4.07;;;9.30;43.90;;;;;;5057299;28;20798;-60
2022/03/01 12:55:21;;;;;;;6.73;4.10;;;9.30;43.90;;;;;;5056766;28;20514;-59